Decoded Metar for CYKJ (KEY LAKE in SK, CANADA) (IATA:YKJ) | Meteo·Mobile Aviation Weather
aviador You're here:

CYKJ Decoded Metar

KEY LAKE in SK, CANADA
Report Time2018-09-20 09:00:00
UTC Time2018-09-20 09:23:02
Flight Rules vfr VFR
Wind260° at 04 kt
W.Decomp.*RWY 21: 3.1 kt HW 2.6 kt RCW
W.Rank260° ranks 8
Current wind is below 260° avg. (6.5)
Visibility9999 m
Phenomena:N/A
Clouds:Scattered 060 Hf
Scattered 070 Hf
Overcast 120 Hf
Expected CloudBase > 1,600 ft AGL from Temp-Dew spread
Ceiling12,000 ft
Temp-1°C (ISA -13)
Dew Point-5°C (75% RH)
AAT-5.0°C
QNH1017 hPa
Density Alt52 ft
Elevation1,670 ft
Report Wrong Elevation
Raw Report
CYKJ 200900Z AUTO 26004KT 9SM SCT060 SCT070 OVC120 M01/M05 A3004
RMK SLP203=

Extra information for CYKJ:More info

Metar Taf Metar & Taf Last 4 Metars F.Rules Stats Wind Profile Meteogram Temp Stats Airport Information Weather charts Add Link Nearby VenuesMetar ALERT Operation Metar Decoded Social comments